sensor_id;sensor_type;location;lat;lon;timestamp;P1;durP1;ratioP1;P2;durP2;ratioP2
35803;SDS011;21924;51.934;7.414;2023-08-08T00:00:37;9.27;;;4.93;;
35803;SDS011;21924;51.934;7.414;2023-08-08T00:03:21;7.53;;;4.85;;
35803;SDS011;21924;51.934;7.414;2023-08-08T00:06:06;10.18;;;5.50;;
35803;SDS011;21924;51.934;7.414;2023-08-08T00:08:50;12.43;;;5.40;;
35803;SDS011;21924;51.934;7.414;2023-08-08T00:11:35;11.07;;;5.70;;
35803;SDS011;21924;51.934;7.414;2023-08-08T00:14:19;13.77;;;5.15;;
35803;SDS011;21924;51.934;7.414;2023-08-08T00:17:03;9.00;;;4.90;;
35803;SDS011;21924;51.934;7.414;2023-08-08T00:19:47;8.05;;;5.00;;
35803;SDS011;21924;51.934;7.414;2023-08-08T00:22:32;12.30;;;5.90;;
35803;SDS011;21924;51.934;7.414;2023-08-08T00:25:16;8.30;;;5.10;;
35803;SDS011;21924;51.934;7.414;2023-08-08T00:31:41;8.45;;;4.63;;
35803;SDS011;21924;51.934;7.414;2023-08-08T00:34:27;17.05;;;5.35;;
35803;SDS011;21924;51.934;7.414;2023-08-08T00:37:11;9.50;;;5.07;;
35803;SDS011;21924;51.934;7.414;2023-08-08T00:39:55;8.25;;;4.85;;
35803;SDS011;21924;51.934;7.414;2023-08-08T00:42:40;9.30;;;4.88;;
35803;SDS011;21924;51.934;7.414;2023-08-08T00:45:24;14.43;;;4.65;;
35803;SDS011;21924;51.934;7.414;2023-08-08T00:48:10;9.98;;;4.93;;
35803;SDS011;21924;51.934;7.414;2023-08-08T00:50:58;9.07;;;5.38;;
35803;SDS011;21924;51.934;7.414;2023-08-08T00:53:44;7.45;;;4.35;;
35803;SDS011;21924;51.934;7.414;2023-08-08T00:56:34;12.18;;;4.38;;
35803;SDS011;21924;51.934;7.414;2023-08-08T00:59:38;5.60;;;3.10;;
35803;SDS011;21924;51.934;7.414;2023-08-08T01:02:27;6.25;;;3.15;;
35803;SDS011;21924;51.934;7.414;2023-08-08T01:05:11;6.78;;;3.20;;
35803;SDS011;21924;51.934;7.414;2023-08-08T01:11:03;4.78;;;3.17;;
35803;SDS011;21924;51.934;7.414;2023-08-08T01:13:48;3.60;;;2.85;;
35803;SDS011;21924;51.934;7.414;2023-08-08T01:16:54;3.65;;;3.25;;
35803;SDS011;21924;51.934;7.414;2023-08-08T01:19:55;5.50;;;3.25;;
35803;SDS011;21924;51.934;7.414;2023-08-08T01:26:08;9.98;;;3.83;;
35803;SDS011;21924;51.934;7.414;2023-08-08T01:28:53;5.50;;;3.35;;
35803;SDS011;21924;51.934;7.414;2023-08-08T01:31:41;7.28;;;3.67;;
35803;SDS011;21924;51.934;7.414;2023-08-08T01:34:25;6.78;;;3.70;;
35803;SDS011;21924;51.934;7.414;2023-08-08T01:37:22;8.40;;;3.95;;
35803;SDS011;21924;51.934;7.414;2023-08-08T01:40:32;6.85;;;4.00;;
35803;SDS011;21924;51.934;7.414;2023-08-08T01:43:18;5.68;;;3.65;;
35803;SDS011;21924;51.934;7.414;2023-08-08T01:46:12;8.45;;;4.40;;
35803;SDS011;21924;51.934;7.414;2023-08-08T01:56:18;11.25;;;7.82;;
35803;SDS011;21924;51.934;7.414;2023-08-08T01:59:02;10.27;;;7.70;;
35803;SDS011;21924;51.934;7.414;2023-08-08T02:02:02;11.77;;;7.93;;
35803;SDS011;21924;51.934;7.414;2023-08-08T02:04:47;14.75;;;8.48;;
35803;SDS011;21924;51.934;7.414;2023-08-08T02:07:31;18.03;;;8.70;;
35803;SDS011;21924;51.934;7.414;2023-08-08T02:10:16;15.48;;;8.40;;
35803;SDS011;21924;51.934;7.414;2023-08-08T02:13:01;16.35;;;7.95;;
35803;SDS011;21924;51.934;7.414;2023-08-08T02:15:55;16.60;;;8.23;;
35803;SDS011;21924;51.934;7.414;2023-08-08T02:19:00;11.85;;;7.22;;
35803;SDS011;21924;51.934;7.414;2023-08-08T02:21:45;13.80;;;7.15;;
35803;SDS011;21924;51.934;7.414;2023-08-08T02:24:30;13.07;;;7.25;;
35803;SDS011;21924;51.934;7.414;2023-08-08T02:27:14;21.42;;;7.53;;
35803;SDS011;21924;51.934;7.414;2023-08-08T02:30:03;15.77;;;7.47;;
35803;SDS011;21924;51.934;7.414;2023-08-08T02:32:48;19.65;;;8.27;;
35803;SDS011;21924;51.934;7.414;2023-08-08T02:35:33;13.82;;;8.18;;
35803;SDS011;21924;51.934;7.414;2023-08-08T02:38:18;20.50;;;7.93;;
35803;SDS011;21924;51.934;7.414;2023-08-08T02:41:02;14.85;;;7.90;;
35803;SDS011;21924;51.934;7.414;2023-08-08T02:43:48;12.85;;;7.35;;
35803;SDS011;21924;51.934;7.414;2023-08-08T02:46:33;11.68;;;7.55;;
35803;SDS011;21924;51.934;7.414;2023-08-08T02:49:17;24.30;;;8.25;;
35803;SDS011;21924;51.934;7.414;2023-08-08T02:52:01;14.00;;;7.93;;
35803;SDS011;21924;51.934;7.414;2023-08-08T02:54:45;15.52;;;7.65;;
35803;SDS011;21924;51.934;7.414;2023-08-08T02:57:31;17.63;;;8.43;;
35803;SDS011;21924;51.934;7.414;2023-08-08T03:00:16;17.10;;;7.55;;
35803;SDS011;21924;51.934;7.414;2023-08-08T03:03:00;13.93;;;7.65;;
35803;SDS011;21924;51.934;7.414;2023-08-08T03:05:45;19.08;;;7.93;;
35803;SDS011;21924;51.934;7.414;2023-08-08T03:08:29;18.70;;;8.25;;
35803;SDS011;21924;51.934;7.414;2023-08-08T03:11:14;14.95;;;7.70;;
35803;SDS011;21924;51.934;7.414;2023-08-08T03:13:59;13.93;;;7.45;;
35803;SDS011;21924;51.934;7.414;2023-08-08T03:16:43;13.95;;;7.82;;
35803;SDS011;21924;51.934;7.414;2023-08-08T03:19:29;15.40;;;7.55;;
35803;SDS011;21924;51.934;7.414;2023-08-08T03:22:13;16.35;;;7.75;;
35803;SDS011;21924;51.934;7.414;2023-08-08T03:24:58;15.48;;;7.78;;
35803;SDS011;21924;51.934;7.414;2023-08-08T03:27:42;19.17;;;7.95;;
35803;SDS011;21924;51.934;7.414;2023-08-08T03:30:27;13.75;;;8.25;;
35803;SDS011;21924;51.934;7.414;2023-08-08T03:33:11;16.70;;;8.07;;
35803;SDS011;21924;51.934;7.414;2023-08-08T03:35:56;17.80;;;7.50;;
35803;SDS011;21924;51.934;7.414;2023-08-08T03:38:40;24.25;;;8.07;;
35803;SDS011;21924;51.934;7.414;2023-08-08T03:41:29;16.77;;;8.80;;
35803;SDS011;21924;51.934;7.414;2023-08-08T03:44:13;13.98;;;7.88;;
35803;SDS011;21924;51.934;7.414;2023-08-08T03:46:57;16.17;;;8.38;;
35803;SDS011;21924;51.934;7.414;2023-08-08T03:49:42;13.27;;;8.20;;
35803;SDS011;21924;51.934;7.414;2023-08-08T03:52:26;14.88;;;8.10;;
35803;SDS011;21924;51.934;7.414;2023-08-08T03:58:52;23.20;;;8.20;;
35803;SDS011;21924;51.934;7.414;2023-08-08T04:01:36;17.98;;;9.20;;
35803;SDS011;21924;51.934;7.414;2023-08-08T04:04:21;15.90;;;8.33;;
35803;SDS011;21924;51.934;7.414;2023-08-08T04:07:07;16.15;;;8.77;;
35803;SDS011;21924;51.934;7.414;2023-08-08T04:09:52;17.67;;;8.85;;
35803;SDS011;21924;51.934;7.414;2023-08-08T04:12:36;20.53;;;8.67;;
35803;SDS011;21924;51.934;7.414;2023-08-08T04:15:27;30.83;;;9.23;;
35803;SDS011;21924;51.934;7.414;2023-08-08T04:18:12;16.50;;;8.43;;
35803;SDS011;21924;51.934;7.414;2023-08-08T04:20:57;15.65;;;7.55;;
35803;SDS011;21924;51.934;7.414;2023-08-08T04:23:41;18.77;;;8.50;;
35803;SDS011;21924;51.934;7.414;2023-08-08T04:26:28;16.70;;;7.68;;
35803;SDS011;21924;51.934;7.414;2023-08-08T04:29:15;28.35;;;8.57;;
35803;SDS011;21924;51.934;7.414;2023-08-08T04:31:59;16.85;;;7.35;;
35803;SDS011;21924;51.934;7.414;2023-08-08T04:34:45;13.48;;;7.70;;
35803;SDS011;21924;51.934;7.414;2023-08-08T04:37:29;14.68;;;7.07;;
35803;SDS011;21924;51.934;7.414;2023-08-08T04:40:13;13.15;;;7.43;;
35803;SDS011;21924;51.934;7.414;2023-08-08T04:42:58;13.30;;;6.55;;
35803;SDS011;21924;51.934;7.414;2023-08-08T04:45:42;14.02;;;7.25;;
35803;SDS011;21924;51.934;7.414;2023-08-08T04:48:26;22.75;;;6.88;;
35803;SDS011;21924;51.934;7.414;2023-08-08T04:51:11;20.63;;;7.13;;
35803;SDS011;21924;51.934;7.414;2023-08-08T04:53:55;15.57;;;7.03;;
35803;SDS011;21924;51.934;7.414;2023-08-08T04:56:40;13.55;;;7.90;;
35803;SDS011;21924;51.934;7.414;2023-08-08T04:59:24;15.20;;;7.43;;
35803;SDS011;21924;51.934;7.414;2023-08-08T05:02:09;15.13;;;7.47;;
35803;SDS011;21924;51.934;7.414;2023-08-08T05:04:53;19.98;;;7.75;;
35803;SDS011;21924;51.934;7.414;2023-08-08T05:11:19;17.85;;;7.50;;
35803;SDS011;21924;51.934;7.414;2023-08-08T05:14:03;21.77;;;8.00;;
35803;SDS011;21924;51.934;7.414;2023-08-08T05:16:47;13.48;;;7.90;;
35803;SDS011;21924;51.934;7.414;2023-08-08T05:19:33;14.73;;;6.93;;
35803;SDS011;21924;51.934;7.414;2023-08-08T05:22:17;20.73;;;7.53;;
35803;SDS011;21924;51.934;7.414;2023-08-08T05:25:02;26.05;;;8.63;;
35803;SDS011;21924;51.934;7.414;2023-08-08T05:27:46;21.42;;;7.88;;
35803;SDS011;21924;51.934;7.414;2023-08-08T05:30:32;20.00;;;7.53;;
35803;SDS011;21924;51.934;7.414;2023-08-08T05:33:17;23.30;;;8.15;;
35803;SDS011;21924;51.934;7.414;2023-08-08T05:36:21;17.13;;;7.78;;
35803;SDS011;21924;51.934;7.414;2023-08-08T05:39:11;25.88;;;8.93;;
35803;SDS011;21924;51.934;7.414;2023-08-08T05:41:56;23.05;;;8.57;;
35803;SDS011;21924;51.934;7.414;2023-08-08T05:44:41;21.60;;;10.00;;
35803;SDS011;21924;51.934;7.414;2023-08-08T05:47:33;17.00;;;9.43;;
35803;SDS011;21924;51.934;7.414;2023-08-08T05:50:33;24.90;;;10.80;;
35803;SDS011;21924;51.934;7.414;2023-08-08T05:53:18;25.05;;;11.23;;
35803;SDS011;21924;51.934;7.414;2023-08-08T05:56:03;22.50;;;10.93;;
35803;SDS011;21924;51.934;7.414;2023-08-08T05:58:47;25.05;;;10.43;;
35803;SDS011;21924;51.934;7.414;2023-08-08T06:02:08;26.33;;;13.10;;
35803;SDS011;21924;51.934;7.414;2023-08-08T06:04:52;26.95;;;10.95;;
35803;SDS011;21924;51.934;7.414;2023-08-08T06:07:36;29.02;;;11.63;;
35803;SDS011;21924;51.934;7.414;2023-08-08T06:10:22;29.77;;;12.35;;
35803;SDS011;21924;51.934;7.414;2023-08-08T06:13:07;30.13;;;12.70;;
35803;SDS011;21924;51.934;7.414;2023-08-08T06:15:55;29.60;;;13.15;;
35803;SDS011;21924;51.934;7.414;2023-08-08T06:18:41;24.55;;;12.75;;
35803;SDS011;21924;51.934;7.414;2023-08-08T06:21:25;22.15;;;13.27;;
35803;SDS011;21924;51.934;7.414;2023-08-08T06:24:09;23.08;;;12.57;;
35803;SDS011;21924;51.934;7.414;2023-08-08T06:26:53;25.15;;;13.20;;
35803;SDS011;21924;51.934;7.414;2023-08-08T06:29:39;24.88;;;12.23;;
35803;SDS011;21924;51.934;7.414;2023-08-08T06:32:23;25.43;;;13.30;;
35803;SDS011;21924;51.934;7.414;2023-08-08T06:35:09;24.13;;;12.52;;
35803;SDS011;21924;51.934;7.414;2023-08-08T06:37:53;28.50;;;13.45;;
35803;SDS011;21924;51.934;7.414;2023-08-08T06:40:38;26.52;;;13.13;;
35803;SDS011;21924;51.934;7.414;2023-08-08T06:43:22;31.45;;;12.15;;
35803;SDS011;21924;51.934;7.414;2023-08-08T06:46:06;29.38;;;12.93;;
35803;SDS011;21924;51.934;7.414;2023-08-08T06:48:51;24.70;;;11.65;;
35803;SDS011;21924;51.934;7.414;2023-08-08T06:51:40;26.98;;;12.48;;
35803;SDS011;21924;51.934;7.414;2023-08-08T06:54:24;29.92;;;12.35;;
35803;SDS011;21924;51.934;7.414;2023-08-08T06:57:10;28.67;;;13.27;;
35803;SDS011;21924;51.934;7.414;2023-08-08T06:59:54;31.58;;;12.50;;
35803;SDS011;21924;51.934;7.414;2023-08-08T07:02:39;28.13;;;11.95;;
35803;SDS011;21924;51.934;7.414;2023-08-08T07:05:23;21.08;;;11.65;;
35803;SDS011;21924;51.934;7.414;2023-08-08T07:08:07;24.90;;;13.23;;
35803;SDS011;21924;51.934;7.414;2023-08-08T07:10:52;26.70;;;12.37;;
35803;SDS011;21924;51.934;7.414;2023-08-08T07:13:38;20.90;;;11.60;;
35803;SDS011;21924;51.934;7.414;2023-08-08T07:16:22;31.48;;;14.07;;
35803;SDS011;21924;51.934;7.414;2023-08-08T07:19:07;21.88;;;12.43;;
35803;SDS011;21924;51.934;7.414;2023-08-08T07:21:51;20.35;;;12.25;;
35803;SDS011;21924;51.934;7.414;2023-08-08T07:24:37;26.85;;;11.35;;
35803;SDS011;21924;51.934;7.414;2023-08-08T07:27:23;25.63;;;12.05;;
35803;SDS011;21924;51.934;7.414;2023-08-08T07:30:09;22.45;;;11.73;;
35803;SDS011;21924;51.934;7.414;2023-08-08T07:32:55;19.02;;;11.40;;
35803;SDS011;21924;51.934;7.414;2023-08-08T07:35:39;19.85;;;12.15;;
35803;SDS011;21924;51.934;7.414;2023-08-08T07:38:24;21.13;;;11.90;;
35803;SDS011;21924;51.934;7.414;2023-08-08T07:41:08;31.77;;;11.68;;
35803;SDS011;21924;51.934;7.414;2023-08-08T07:43:53;24.95;;;12.45;;
35803;SDS011;21924;51.934;7.414;2023-08-08T07:46:37;25.35;;;12.02;;
35803;SDS011;21924;51.934;7.414;2023-08-08T07:49:22;28.98;;;13.23;;
35803;SDS011;21924;51.934;7.414;2023-08-08T07:52:06;29.55;;;12.52;;
35803;SDS011;21924;51.934;7.414;2023-08-08T07:54:52;27.38;;;11.93;;
35803;SDS011;21924;51.934;7.414;2023-08-08T07:57:36;24.90;;;12.95;;
35803;SDS011;21924;51.934;7.414;2023-08-08T08:00:21;25.75;;;12.05;;
35803;SDS011;21924;51.934;7.414;2023-08-08T08:03:05;25.08;;;12.70;;
35803;SDS011;21924;51.934;7.414;2023-08-08T08:05:49;20.70;;;12.00;;
35803;SDS011;21924;51.934;7.414;2023-08-08T08:08:34;20.60;;;13.23;;
35803;SDS011;21924;51.934;7.414;2023-08-08T08:11:18;21.23;;;11.63;;
35803;SDS011;21924;51.934;7.414;2023-08-08T08:14:03;27.10;;;10.75;;
35803;SDS011;21924;51.934;7.414;2023-08-08T08:16:47;19.05;;;10.48;;
35803;SDS011;21924;51.934;7.414;2023-08-08T08:19:33;20.38;;;10.60;;
35803;SDS011;21924;51.934;7.414;2023-08-08T08:22:17;22.50;;;10.85;;
35803;SDS011;21924;51.934;7.414;2023-08-08T08:25:02;29.50;;;10.68;;
35803;SDS011;21924;51.934;7.414;2023-08-08T08:27:48;21.95;;;10.25;;
35803;SDS011;21924;51.934;7.414;2023-08-08T08:30:33;17.23;;;7.78;;
35803;SDS011;21924;51.934;7.414;2023-08-08T08:33:22;16.63;;;7.10;;
35803;SDS011;21924;51.934;7.414;2023-08-08T08:36:06;11.45;;;5.93;;
35803;SDS011;21924;51.934;7.414;2023-08-08T08:38:50;10.25;;;5.93;;
35803;SDS011;21924;51.934;7.414;2023-08-08T08:41:35;16.48;;;5.90;;
35803;SDS011;21924;51.934;7.414;2023-08-08T08:44:22;16.50;;;6.50;;
35803;SDS011;21924;51.934;7.414;2023-08-08T08:47:08;11.30;;;4.72;;
35803;SDS011;21924;51.934;7.414;2023-08-08T08:49:56;14.15;;;4.90;;
35803;SDS011;21924;51.934;7.414;2023-08-08T08:52:42;13.00;;;3.97;;
35803;SDS011;21924;51.934;7.414;2023-08-08T08:55:27;11.55;;;3.97;;
35803;SDS011;21924;51.934;7.414;2023-08-08T08:58:13;9.65;;;3.33;;
35803;SDS011;21924;51.934;7.414;2023-08-08T09:01:00;8.65;;;2.80;;
35803;SDS011;21924;51.934;7.414;2023-08-08T09:03:47;3.95;;;2.38;;
35803;SDS011;21924;51.934;7.414;2023-08-08T09:06:32;5.45;;;2.28;;
35803;SDS011;21924;51.934;7.414;2023-08-08T09:09:17;9.55;;;2.55;;
35803;SDS011;21924;51.934;7.414;2023-08-08T09:33:54;9.52;;;1.98;;
35803;SDS011;21924;51.934;7.414;2023-08-08T09:36:45;5.53;;;1.85;;
35803;SDS011;21924;51.934;7.414;2023-08-08T09:39:30;7.72;;;1.95;;
35803;SDS011;21924;51.934;7.414;2023-08-08T09:42:15;4.20;;;2.08;;
35803;SDS011;21924;51.934;7.414;2023-08-08T09:44:59;3.75;;;1.90;;
35803;SDS011;21924;51.934;7.414;2023-08-08T09:47:45;3.90;;;1.75;;
35803;SDS011;21924;51.934;7.414;2023-08-08T09:50:30;3.70;;;1.27;;
35803;SDS011;21924;51.934;7.414;2023-08-08T09:53:16;4.85;;;1.60;;
35803;SDS011;21924;51.934;7.414;2023-08-08T09:59:42;2.25;;;1.30;;
35803;SDS011;21924;51.934;7.414;2023-08-08T10:02:27;2.63;;;1.67;;
35803;SDS011;21924;51.934;7.414;2023-08-08T10:05:14;6.80;;;1.50;;
35803;SDS011;21924;51.934;7.414;2023-08-08T10:07:59;1.35;;;1.08;;
35803;SDS011;21924;51.934;7.414;2023-08-08T10:10:45;4.10;;;1.27;;
35803;SDS011;21924;51.934;7.414;2023-08-08T10:13:30;3.47;;;1.13;;
35803;SDS011;21924;51.934;7.414;2023-08-08T10:16:15;2.58;;;1.25;;
35803;SDS011;21924;51.934;7.414;2023-08-08T10:19:03;2.75;;;1.02;;
35803;SDS011;21924;51.934;7.414;2023-08-08T10:21:48;4.03;;;1.33;;
35803;SDS011;21924;51.934;7.414;2023-08-08T10:24:51;2.40;;;1.27;;
35803;SDS011;21924;51.934;7.414;2023-08-08T10:31:23;5.63;;;1.33;;
35803;SDS011;21924;51.934;7.414;2023-08-08T10:34:07;5.57;;;1.45;;
35803;SDS011;21924;51.934;7.414;2023-08-08T10:36:53;6.18;;;1.30;;
35803;SDS011;21924;51.934;7.414;2023-08-08T10:39:48;3.10;;;1.90;;
35803;SDS011;21924;51.934;7.414;2023-08-08T10:42:43;8.27;;;1.83;;
35803;SDS011;21924;51.934;7.414;2023-08-08T10:45:31;4.57;;;2.22;;
35803;SDS011;21924;51.934;7.414;2023-08-08T10:51:02;2.60;;;1.27;;
35803;SDS011;21924;51.934;7.414;2023-08-08T10:53:52;1.77;;;1.13;;
35803;SDS011;21924;51.934;7.414;2023-08-08T10:56:36;2.67;;;0.93;;
35803;SDS011;21924;51.934;7.414;2023-08-08T10:59:28;4.13;;;1.02;;
35803;SDS011;21924;51.934;7.414;2023-08-08T11:02:21;4.03;;;1.15;;
35803;SDS011;21924;51.934;7.414;2023-08-08T11:05:09;4.63;;;0.95;;
35803;SDS011;21924;51.934;7.414;2023-08-08T11:07:53;3.60;;;1.10;;
35803;SDS011;21924;51.934;7.414;2023-08-08T11:10:39;3.53;;;1.00;;
35803;SDS011;21924;51.934;7.414;2023-08-08T11:13:24;2.90;;;0.90;;
35803;SDS011;21924;51.934;7.414;2023-08-08T11:16:08;1.55;;;1.00;;
35803;SDS011;21924;51.934;7.414;2023-08-08T11:18:55;3.08;;;1.55;;
35803;SDS011;21924;51.934;7.414;2023-08-08T11:21:40;9.48;;;1.20;;
35803;SDS011;21924;51.934;7.414;2023-08-08T11:24:34;4.97;;;1.23;;
35803;SDS011;21924;51.934;7.414;2023-08-08T11:27:19;7.88;;;1.65;;
35803;SDS011;21924;51.934;7.414;2023-08-08T11:30:04;2.50;;;1.10;;
35803;SDS011;21924;51.934;7.414;2023-08-08T11:32:49;2.87;;;1.10;;
35803;SDS011;21924;51.934;7.414;2023-08-08T11:35:34;4.20;;;1.10;;
35803;SDS011;21924;51.934;7.414;2023-08-08T11:38:20;2.85;;;1.08;;
35803;SDS011;21924;51.934;7.414;2023-08-08T11:41:15;5.43;;;0.98;;
35803;SDS011;21924;51.934;7.414;2023-08-08T11:44:02;1.75;;;0.73;;
35803;SDS011;21924;51.934;7.414;2023-08-08T11:49:37;5.20;;;1.25;;
35803;SDS011;21924;51.934;7.414;2023-08-08T11:52:29;2.30;;;1.15;;
35803;SDS011;21924;51.934;7.414;2023-08-08T11:55:14;1.65;;;0.93;;
35803;SDS011;21924;51.934;7.414;2023-08-08T11:57:58;9.80;;;0.98;;
35803;SDS011;21924;51.934;7.414;2023-08-08T12:00:45;1.83;;;0.73;;
35803;SDS011;21924;51.934;7.414;2023-08-08T12:03:29;1.23;;;0.77;;
35803;SDS011;21924;51.934;7.414;2023-08-08T12:06:14;1.95;;;1.00;;
35803;SDS011;21924;51.934;7.414;2023-08-08T12:09:00;6.65;;;1.33;;
35803;SDS011;21924;51.934;7.414;2023-08-08T12:11:47;0.73;;;0.73;;
35803;SDS011;21924;51.934;7.414;2023-08-08T12:14:37;1.75;;;0.60;;
35803;SDS011;21924;51.934;7.414;2023-08-08T12:17:22;2.05;;;0.95;;
35803;SDS011;21924;51.934;7.414;2023-08-08T12:20:07;6.22;;;0.90;;
35803;SDS011;21924;51.934;7.414;2023-08-08T12:22:53;4.68;;;1.10;;
35803;SDS011;21924;51.934;7.414;2023-08-08T12:25:37;3.85;;;0.75;;
35803;SDS011;21924;51.934;7.414;2023-08-08T12:28:22;3.28;;;0.90;;
35803;SDS011;21924;51.934;7.414;2023-08-08T12:31:06;2.13;;;0.60;;
35803;SDS011;21924;51.934;7.414;2023-08-08T12:33:51;2.13;;;0.77;;
35803;SDS011;21924;51.934;7.414;2023-08-08T12:36:37;2.38;;;0.90;;
35803;SDS011;21924;51.934;7.414;2023-08-08T12:39:23;4.63;;;1.13;;
35803;SDS011;21924;51.934;7.414;2023-08-08T12:42:07;1.00;;;0.80;;
35803;SDS011;21924;51.934;7.414;2023-08-08T12:44:52;5.35;;;0.82;;
35803;SDS011;21924;51.934;7.414;2023-08-08T12:47:38;1.23;;;0.80;;
35803;SDS011;21924;51.934;7.414;2023-08-08T12:50:26;2.75;;;0.63;;
35803;SDS011;21924;51.934;7.414;2023-08-08T12:55:56;2.33;;;1.10;;
35803;SDS011;21924;51.934;7.414;2023-08-08T12:58:40;2.20;;;0.95;;
35803;SDS011;21924;51.934;7.414;2023-08-08T13:01:24;1.55;;;0.80;;
35803;SDS011;21924;51.934;7.414;2023-08-08T13:04:09;4.57;;;0.90;;
35803;SDS011;21924;51.934;7.414;2023-08-08T13:06:53;3.70;;;0.90;;
35803;SDS011;21924;51.934;7.414;2023-08-08T13:09:37;1.85;;;0.90;;
35803;SDS011;21924;51.934;7.414;2023-08-08T13:12:22;3.22;;;1.15;;
35803;SDS011;21924;51.934;7.414;2023-08-08T13:15:07;6.18;;;1.10;;
35803;SDS011;21924;51.934;7.414;2023-08-08T13:17:51;2.28;;;0.73;;
35803;SDS011;21924;51.934;7.414;2023-08-08T13:20:36;1.77;;;1.10;;
35803;SDS011;21924;51.934;7.414;2023-08-08T13:23:20;1.52;;;0.70;;
35803;SDS011;21924;51.934;7.414;2023-08-08T13:26:04;8.70;;;0.70;;
35803;SDS011;21924;51.934;7.414;2023-08-08T13:28:55;3.85;;;1.00;;
35803;SDS011;21924;51.934;7.414;2023-08-08T13:31:43;0.95;;;0.73;;
35803;SDS011;21924;51.934;7.414;2023-08-08T13:34:28;6.75;;;0.88;;
35803;SDS011;21924;51.934;7.414;2023-08-08T13:37:12;1.45;;;0.88;;
35803;SDS011;21924;51.934;7.414;2023-08-08T13:39:59;1.05;;;0.77;;
35803;SDS011;21924;51.934;7.414;2023-08-08T13:42:43;1.05;;;0.75;;
35803;SDS011;21924;51.934;7.414;2023-08-08T13:45:32;6.43;;;1.10;;
35803;SDS011;21924;51.934;7.414;2023-08-08T13:48:16;2.40;;;1.00;;
35803;SDS011;21924;51.934;7.414;2023-08-08T13:51:01;1.50;;;0.73;;
35803;SDS011;21924;51.934;7.414;2023-08-08T13:56:32;5.55;;;0.95;;
35803;SDS011;21924;51.934;7.414;2023-08-08T13:59:17;2.67;;;0.80;;
35803;SDS011;21924;51.934;7.414;2023-08-08T14:02:04;1.65;;;0.70;;
35803;SDS011;21924;51.934;7.414;2023-08-08T14:04:54;6.18;;;0.93;;
35803;SDS011;21924;51.934;7.414;2023-08-08T14:07:41;4.85;;;0.70;;
35803;SDS011;21924;51.934;7.414;2023-08-08T14:10:25;4.65;;;1.08;;
35803;SDS011;21924;51.934;7.414;2023-08-08T14:13:10;1.10;;;0.90;;
35803;SDS011;21924;51.934;7.414;2023-08-08T14:15:55;3.42;;;1.10;;
35803;SDS011;21924;51.934;7.414;2023-08-08T14:18:39;2.63;;;0.88;;
35803;SDS011;21924;51.934;7.414;2023-08-08T14:21:24;6.00;;;1.00;;
35803;SDS011;21924;51.934;7.414;2023-08-08T14:24:10;1.60;;;0.90;;
35803;SDS011;21924;51.934;7.414;2023-08-08T14:26:54;7.47;;;1.70;;
35803;SDS011;21924;51.934;7.414;2023-08-08T14:29:39;2.78;;;0.80;;
35803;SDS011;21924;51.934;7.414;2023-08-08T14:32:24;1.30;;;1.10;;
35803;SDS011;21924;51.934;7.414;2023-08-08T14:35:08;4.10;;;1.00;;
35803;SDS011;21924;51.934;7.414;2023-08-08T14:37:53;2.15;;;0.73;;
35803;SDS011;21924;51.934;7.414;2023-08-08T14:40:38;1.00;;;0.90;;
35803;SDS011;21924;51.934;7.414;2023-08-08T14:43:30;2.97;;;0.98;;
35803;SDS011;21924;51.934;7.414;2023-08-08T14:46:14;3.47;;;1.05;;
35803;SDS011;21924;51.934;7.414;2023-08-08T14:48:59;3.17;;;1.10;;
35803;SDS011;21924;51.934;7.414;2023-08-08T14:51:43;4.93;;;1.20;;
35803;SDS011;21924;51.934;7.414;2023-08-08T14:54:29;1.63;;;1.00;;
35803;SDS011;21924;51.934;7.414;2023-08-08T14:57:13;1.10;;;0.87;;
35803;SDS011;21924;51.934;7.414;2023-08-08T14:59:59;1.85;;;0.90;;
35803;SDS011;21924;51.934;7.414;2023-08-08T15:02:46;5.32;;;1.10;;
35803;SDS011;21924;51.934;7.414;2023-08-08T15:05:31;1.63;;;1.00;;
35803;SDS011;21924;51.934;7.414;2023-08-08T15:08:15;4.63;;;1.00;;
35803;SDS011;21924;51.934;7.414;2023-08-08T15:11:00;2.35;;;0.90;;
35803;SDS011;21924;51.934;7.414;2023-08-08T15:13:44;1.63;;;0.98;;
35803;SDS011;21924;51.934;7.414;2023-08-08T15:16:28;0.88;;;0.80;;
35803;SDS011;21924;51.934;7.414;2023-08-08T15:19:13;2.15;;;0.80;;
35803;SDS011;21924;51.934;7.414;2023-08-08T15:21:57;2.22;;;0.85;;
35803;SDS011;21924;51.934;7.414;2023-08-08T15:24:41;2.15;;;1.05;;
35803;SDS011;21924;51.934;7.414;2023-08-08T15:27:25;1.25;;;1.10;;
35803;SDS011;21924;51.934;7.414;2023-08-08T15:30:10;2.50;;;1.02;;
35803;SDS011;21924;51.934;7.414;2023-08-08T15:32:54;3.72;;;1.33;;
35803;SDS011;21924;51.934;7.414;2023-08-08T15:35:38;3.13;;;1.30;;
35803;SDS011;21924;51.934;7.414;2023-08-08T15:38:23;5.95;;;0.93;;
35803;SDS011;21924;51.934;7.414;2023-08-08T15:41:07;1.13;;;0.90;;
35803;SDS011;21924;51.934;7.414;2023-08-08T15:43:51;1.50;;;0.82;;
35803;SDS011;21924;51.934;7.414;2023-08-08T15:46:37;2.80;;;0.80;;
35803;SDS011;21924;51.934;7.414;2023-08-08T15:49:26;1.50;;;0.95;;
35803;SDS011;21924;51.934;7.414;2023-08-08T15:52:10;5.47;;;1.00;;
35803;SDS011;21924;51.934;7.414;2023-08-08T15:54:55;1.40;;;0.93;;
35803;SDS011;21924;51.934;7.414;2023-08-08T15:57:39;1.85;;;1.20;;
35803;SDS011;21924;51.934;7.414;2023-08-08T16:00:23;2.42;;;1.10;;
35803;SDS011;21924;51.934;7.414;2023-08-08T16:03:08;1.58;;;0.88;;
35803;SDS011;21924;51.934;7.414;2023-08-08T16:05:52;3.97;;;1.45;;
35803;SDS011;21924;51.934;7.414;2023-08-08T16:08:36;4.10;;;1.02;;
35803;SDS011;21924;51.934;7.414;2023-08-08T16:11:20;2.05;;;1.20;;
35803;SDS011;21924;51.934;7.414;2023-08-08T16:14:05;5.43;;;1.20;;
35803;SDS011;21924;51.934;7.414;2023-08-08T16:16:50;3.22;;;1.40;;
35803;SDS011;21924;51.934;7.414;2023-08-08T16:19:35;2.75;;;1.10;;
35803;SDS011;21924;51.934;7.414;2023-08-08T16:22:20;3.20;;;1.17;;
35803;SDS011;21924;51.934;7.414;2023-08-08T16:25:05;3.08;;;1.40;;
35803;SDS011;21924;51.934;7.414;2023-08-08T16:27:50;1.10;;;1.00;;
35803;SDS011;21924;51.934;7.414;2023-08-08T16:30:34;1.30;;;1.20;;
35803;SDS011;21924;51.934;7.414;2023-08-08T16:33:19;1.70;;;1.05;;
35803;SDS011;21924;51.934;7.414;2023-08-08T16:36:06;3.28;;;1.20;;
35803;SDS011;21924;51.934;7.414;2023-08-08T16:38:53;1.85;;;0.95;;
35803;SDS011;21924;51.934;7.414;2023-08-08T16:41:38;3.95;;;1.02;;
35803;SDS011;21924;51.934;7.414;2023-08-08T16:44:23;1.58;;;1.17;;
35803;SDS011;21924;51.934;7.414;2023-08-08T16:47:07;2.60;;;1.20;;
35803;SDS011;21924;51.934;7.414;2023-08-08T16:49:52;4.38;;;1.65;;
35803;SDS011;21924;51.934;7.414;2023-08-08T16:52:36;2.80;;;1.30;;
35803;SDS011;21924;51.934;7.414;2023-08-08T16:55:20;4.70;;;1.60;;
35803;SDS011;21924;51.934;7.414;2023-08-08T16:58:04;3.50;;;1.45;;
35803;SDS011;21924;51.934;7.414;2023-08-08T17:00:50;1.23;;;1.02;;
35803;SDS011;21924;51.934;7.414;2023-08-08T17:03:34;4.03;;;1.38;;
35803;SDS011;21924;51.934;7.414;2023-08-08T17:06:20;3.03;;;1.02;;
35803;SDS011;21924;51.934;7.414;2023-08-08T17:09:06;1.52;;;1.08;;
35803;SDS011;21924;51.934;7.414;2023-08-08T17:11:51;7.07;;;1.40;;
35803;SDS011;21924;51.934;7.414;2023-08-08T17:14:38;6.93;;;1.67;;
35803;SDS011;21924;51.934;7.414;2023-08-08T17:17:22;3.22;;;1.15;;
35803;SDS011;21924;51.934;7.414;2023-08-08T17:20:11;2.13;;;1.20;;
35803;SDS011;21924;51.934;7.414;2023-08-08T17:22:55;2.95;;;1.10;;
35803;SDS011;21924;51.934;7.414;2023-08-08T17:25:39;1.65;;;1.20;;
35803;SDS011;21924;51.934;7.414;2023-08-08T17:28:24;4.07;;;1.02;;
35803;SDS011;21924;51.934;7.414;2023-08-08T17:31:08;2.72;;;1.48;;
35803;SDS011;21924;51.934;7.414;2023-08-08T17:44:54;3.97;;;1.52;;
35803;SDS011;21924;51.934;7.414;2023-08-08T17:47:39;3.15;;;1.50;;